This is the latest recevied weather packets stored in our database for station/object BMCB-24. If no packets are shown the sender has not sent any weather packets the latest 10 day(s).
| Time | Temp. | Humidity | Pressure | Rain* | Wind** | Luminosity | Snow |
|---|---|---|---|---|---|---|---|
| 1777838471 | 8.89° C | 96% | 1014.8 hPa | 0 mm | - | 0 W/m² | - |
| 1777836064 | 10° C | 92% | 1014.6 hPa | 0 mm | - | 0 W/m² | - |
| 1777834869 | 11.67° C | 87% | 1014.3 hPa | 0 mm | - | 4 W/m² | - |
| 1777832469 | 13.33° C | 82% | 1013.8 hPa | 0 mm | - | 28 W/m² | - |
| 1777831261 | 13.89° C | 82% | 1013.6 hPa | 0 mm | - | 64 W/m² | - |
| 1777830662 | 13.89° C | 81% | 1013.6 hPa | 0 mm | - | 72 W/m² | - |
| 1777830065 | 13.89° C | 81% | 1013.6 hPa | 0 mm | - | 68 W/m² | - |
| 1777825858 | 13.33° C | 84% | 1013.9 hPa | 0 mm | - | 66 W/m² | - |
| 1777818057 | 12.78° C | 91% | 1014.7 hPa | 1.02 mm | - | 194 W/m² | - |
| 1777815059 | 12.78° C | 89% | 1015.1 hPa | 1.27 mm | - | 118 W/m² | - |
| 1777813257 | 13.33° C | 82% | 1014.9 hPa | 0.25 mm | - | 126 W/m² | - |
| 1777811459 | 14.44° C | 76% | 1014.7 hPa | 0 mm | - | 166 W/m² | - |
| 1777807858 | 15° C | 70% | 1014.3 hPa | 0 mm | - | 352 W/m² | - |
| 1777806065 | 15° C | 72% | 1014.4 hPa | 0 mm | - | 652 W/m² | - |
| 1777804864 | 14.44° C | 74% | 1014.5 hPa | 0 mm | - | 424 W/m² | - |
| 1777804265 | 14.44° C | 71% | 1014.5 hPa | 0 mm | - | 298 W/m² | - |
| 1777796458 | 15.56° C | 51% | 1014.1 hPa | 0 mm | - | 398 W/m² | - |
| 1777793456 | 14.44° C | 56% | 1014 hPa | 0 mm | - | 178 W/m² | - |
| 1777792853 | 14.44° C | 56% | 1014 hPa | 0 mm | - | 152 W/m² | - |
| 1777785654 | 12.78° C | 58% | 1014.2 hPa | 0 mm | - | 40 W/m² | - |
| 1777783254 | 10.56° C | 66% | 1014.5 hPa | 0 mm | - | 20 W/m² | - |
| 1777780256 | 11.11° C | 61% | 1014.7 hPa | 0 mm | - | 0 W/m² | - |
| 1777777856 | 10.56° C | 67% | 1014.8 hPa | 0 mm | - | 0 W/m² | - |
| 1777768255 | 11.11° C | 76% | 1015.5 hPa | 0 mm | - | 0 W/m² | - |
| 1777766462 | 11.67° C | 74% | 1015.6 hPa | 0 mm | - | 0 W/m² | - |
* Rain latest hour (hover to see other rain measurements)
** Current wind speed in m/s (hover to see current wind gust speed)